»·PEaware :: AWE2180 KPHX-KLAS

AWE2180 :: KPHX-KLAS

FLIGHT INFORMATION

Flight Status: Arrived
Operator:
US Airways
More flights by this operator :: More flights under this callsign
Pilot: Jim M. (18055)
Aircraft: BOEING 737-200
(B732)
More flights by this aircraft type
Origin: KPHX Phoenix Sky Harbor Intl
United States
Destination: KLAS McCarran Intl
United States
More flights between these airports :: More routes between these airports
Route: +CHILY4 IGM KADDY2
File this flight plan on PilotEdge
Remarks:
Altitude:
(Current/Filed)
28,000ft
Speed:
(Current/Filed)
450kts
Departed: 12-Feb-18 05:25 PM
Arrived: 12-Feb-18 06:11 PM
Distance/Time
Traveled:
221nm/0:46
Distance/Time
To Go:
Arrived

Flight Plot

Page will automatically refresh every two minutes.


Map Options




Map Legend


Flown Route
Filed Route
Departure Airport
Arrival Airport
Navaid (VOR, NDB)
Fix

Horizontal Profiles

Position Reports

Time Latitude Longitude Heading Altitude Ground
Speed
12-Feb-18 16:57 33.437133 -111.999801 90 1131ft 0kts
12-Feb-18 16:58 33.437133 -111.999801 90 1131ft 0kts
12-Feb-18 16:59 33.437133 -111.999801 90 1131ft 0kts
12-Feb-18 17:00 33.437133 -111.999801 90 1131ft 0kts
12-Feb-18 17:01 33.437133 -111.999801 90 1131ft 0kts
12-Feb-18 17:02 33.437133 -111.999801 90 1131ft 0kts
12-Feb-18 17:03 33.437133 -111.999801 90 1131ft 0kts
12-Feb-18 17:04 33.437133 -111.999801 90 1131ft 0kts
12-Feb-18 17:05 33.437133 -111.999801 90 1131ft 0kts
12-Feb-18 17:06 33.437133 -111.999801 90 1131ft 0kts
12-Feb-18 17:07 33.437133 -111.999801 90 1131ft 0kts
12-Feb-18 17:08 33.437133 -111.999801 90 1131ft 0kts
12-Feb-18 17:09 33.437133 -111.999801 90 1131ft 0kts
12-Feb-18 17:10 33.437133 -111.999801 90 1131ft 0kts
12-Feb-18 17:11 33.437133 -111.999796 91 1131ft 0kts
12-Feb-18 17:12 33.436980 -112.000209 37 1131ft 2kts
12-Feb-18 17:13 33.436711 -112.000314 359 1131ft 0kts
12-Feb-18 17:14 33.436712 -112.000314 359 1131ft 0kts
12-Feb-18 17:15 33.436712 -112.000314 359 1131ft 0kts
12-Feb-18 17:16 33.436757 -112.000314 359 1131ft 1kts
12-Feb-18 17:17 33.438224 -112.000329 358 1131ft 0kts
12-Feb-18 17:18 33.438224 -112.000329 358 1131ft 0kts
12-Feb-18 17:19 33.438224 -112.000329 358 1131ft 0kts
12-Feb-18 17:20 33.438224 -112.000329 358 1131ft 0kts
12-Feb-18 17:21 33.438224 -112.000329 358 1131ft 0kts
12-Feb-18 17:22 33.438224 -112.000329 358 1131ft 0kts
12-Feb-18 17:23 33.438991 -112.002200 267 1131ft 13kts
12-Feb-18 17:24 33.438911 -112.008163 269 1129ft 22kts
12-Feb-18 17:25 33.438970 -112.016892 269 1124ft 29kts
12-Feb-18 17:26 33.438989 -112.026947 271 1117ft 26kts
12-Feb-18 17:27 33.439638 -112.029651 350 1114ft 0kts
12-Feb-18 17:28 33.439638 -112.029651 350 1114ft 0kts
12-Feb-18 17:29 33.439638 -112.029651 350 1114ft 0kts
12-Feb-18 17:30 33.439643 -112.029651 350 1114ft 0kts
12-Feb-18 17:31 33.440882 -112.027580 90 1116ft 34kts
12-Feb-18 17:32 33.444059 -111.977078 90 2077ft 219kts
12-Feb-18 17:33 33.450351 -111.897922 71 4984ft 278kts
12-Feb-18 17:34 33.497908 -111.819417 55 7598ft 305kts
12-Feb-18 17:35 33.550019 -111.742278 35 8007ft 288kts
12-Feb-18 17:36 33.619115 -111.768832 300 9492ft 298kts
12-Feb-18 17:37 33.662176 -111.841840 300 10568ft 351kts
12-Feb-18 17:38 33.728904 -111.954104 300 13650ft 362kts
12-Feb-18 17:39 33.779769 -112.036030 300 15572ft 372kts
12-Feb-18 17:40 33.843681 -112.135226 300 17669ft 382kts
12-Feb-18 17:41 33.924668 -112.249849 314 19810ft 404kts
12-Feb-18 17:42 34.003145 -112.314393 312 20992ft 413kts
12-Feb-18 17:43 34.106965 -112.385917 327 21722ft 451kts
12-Feb-18 17:44 34.220309 -112.453793 325 22577ft 461kts
12-Feb-18 17:45 34.334956 -112.524884 324 23505ft 466kts
12-Feb-18 17:46 34.445460 -112.593687 322 25550ft 442kts
12-Feb-18 17:47 34.554838 -112.662143 321 26713ft 447kts
12-Feb-18 17:48 34.665724 -112.731696 321 27805ft 451kts
12-Feb-18 17:49 34.746295 -112.835491 291 27940ft 423kts
12-Feb-18 17:50 34.806899 -112.959605 290 27934ft 431kts
12-Feb-18 17:51 34.866867 -113.086517 291 27924ft 436kts
12-Feb-18 17:52 34.926967 -113.214501 291 27889ft 432kts
12-Feb-18 17:53 34.985616 -113.339933 291 27870ft 422kts
12-Feb-18 17:54 35.043033 -113.463204 291 27869ft 415kts
12-Feb-18 17:55 35.099429 -113.584578 291 27664ft 402kts
12-Feb-18 17:56 35.153786 -113.702172 291 25941ft 398kts
12-Feb-18 17:57 35.207713 -113.819195 291 24400ft 394kts
12-Feb-18 17:58 35.257259 -113.927103 291 23872ft 389kts
12-Feb-18 17:59 35.343538 -114.004577 351 23881ft 438kts
12-Feb-18 18:00 35.464259 -114.011017 342 22827ft 429kts
12-Feb-18 18:01 35.573520 -114.052650 332 19196ft 402kts
12-Feb-18 18:02 35.675018 -114.103085 332 16518ft 385kts
12-Feb-18 18:03 35.772089 -114.153157 329 14351ft 373kts
12-Feb-18 18:04 35.827919 -114.249156 291 12157ft 343kts
12-Feb-18 18:05 35.866727 -114.344645 292 11982ft 282kts
12-Feb-18 18:06 35.901563 -114.427709 292 12010ft 276kts
12-Feb-18 18:07 35.937562 -114.514282 292 12002ft 286kts
12-Feb-18 18:08 35.973121 -114.599495 292 11060ft 276kts
12-Feb-18 18:09 36.004161 -114.677687 291 9758ft 225kts
12-Feb-18 18:10 36.028830 -114.742803 291 8100ft 220kts
12-Feb-18 18:11 36.052487 -114.811429 291 6261ft 216kts
12-Feb-18 18:12 36.071502 -114.875905 278 5540ft 190kts
12-Feb-18 18:13 36.074678 -114.937424 272 4498ft 172kts
12-Feb-18 18:14 36.074222 -114.989297 272 3380ft 143kts
12-Feb-18 18:15 36.073809 -115.033950 268 2425ft 129kts
12-Feb-18 18:16 36.074098 -115.081268 270 2764ft 143kts
12-Feb-18 18:17 36.073625 -115.127866 267 2085ft 134kts
12-Feb-18 18:18 36.074215 -115.149634 297 2119ft 23kts
12-Feb-18 18:19 36.078390 -115.152184 23 2120ft 11kts
12-Feb-18 18:20 36.078282 -115.147769 69 2104ft 14kts
12-Feb-18 18:21 36.078289 -115.140689 90 2082ft 26kts
12-Feb-18 18:22 36.078978 -115.134823 261 2064ft 6kts
12-Feb-18 18:23 36.079592 -115.135889 24 2065ft 6kts
12-Feb-18 18:24 36.079982 -115.135665 24 2064ft 0kts
12-Feb-18 18:25 36.079982 -115.135665 24 2064ft 0kts
12-Feb-18 18:26 36.079982 -115.135665 24 2064ft 0kts

Navigation Log

Ident Type
1. KPHX Airport
2. ZEPER Fix
3. KARLO Fix
4. CHILY Fix
5. RAMSY Fix
6. SISIE Fix
7. Navaid
8. IGM Navaid
9. IGM Navaid
10. COTES Fix
11. ZIVSI Fix
12. KADDY Fix
13. KLAS Airport